sensor_id;sensor_type;location;lat;lon;timestamp;pressure;altitude;pressure_sealevel;temperature;humidity
12799;BME280;19250;42.646;26.980;2023-05-21T00:00:55;98654.38;;;18.75;55.88
12799;BME280;19250;42.646;26.980;2023-05-21T00:03:22;98660.81;;;17.92;59.77
12799;BME280;19250;42.646;26.980;2023-05-21T00:05:51;98656.94;;;18.26;59.61
12799;BME280;19250;42.646;26.980;2023-05-21T00:08:19;98655.41;;;18.43;59.32
12799;BME280;19250;42.646;26.980;2023-05-21T00:10:46;98659.53;;;18.52;59.18
12799;BME280;19250;42.646;26.980;2023-05-21T00:13:13;98650.34;;;18.22;60.75
12799;BME280;19250;42.646;26.980;2023-05-21T00:15:40;98631.00;;;18.56;59.53
12799;BME280;19250;42.646;26.980;2023-05-21T00:18:06;98641.28;;;18.41;60.29
12799;BME280;19250;42.646;26.980;2023-05-21T00:20:33;98640.22;;;18.80;58.67
12799;BME280;19250;42.646;26.980;2023-05-21T00:23:01;98633.31;;;18.84;58.94
12799;BME280;19250;42.646;26.980;2023-05-21T00:25:29;98640.91;;;19.18;56.86
12799;BME280;19250;42.646;26.980;2023-05-21T00:27:56;98631.53;;;18.96;55.21
12799;BME280;19250;42.646;26.980;2023-05-21T00:30:23;98635.63;;;19.05;55.34
12799;BME280;19250;42.646;26.980;2023-05-21T00:32:50;98632.13;;;19.23;54.30
12799;BME280;19250;42.646;26.980;2023-05-21T00:35:17;98633.28;;;19.09;53.95
12799;BME280;19250;42.646;26.980;2023-05-21T00:37:44;98638.06;;;19.13;53.63
12799;BME280;19250;42.646;26.980;2023-05-21T00:40:11;98629.59;;;19.28;53.47
12799;BME280;19250;42.646;26.980;2023-05-21T00:42:40;98633.13;;;19.28;52.92
12799;BME280;19250;42.646;26.980;2023-05-21T00:45:07;98627.66;;;19.35;52.25
12799;BME280;19250;42.646;26.980;2023-05-21T00:47:34;98620.13;;;19.37;52.41
12799;BME280;19250;42.646;26.980;2023-05-21T00:50:01;98615.97;;;19.41;52.29
12799;BME280;19250;42.646;26.980;2023-05-21T00:52:29;98617.59;;;19.42;52.42
12799;BME280;19250;42.646;26.980;2023-05-21T00:54:56;98611.09;;;19.68;52.23
12799;BME280;19250;42.646;26.980;2023-05-21T00:57:24;98619.00;;;19.26;53.95
12799;BME280;19250;42.646;26.980;2023-05-21T00:59:54;98608.25;;;19.44;53.05
12799;BME280;19250;42.646;26.980;2023-05-21T01:02:20;98606.63;;;19.37;53.56
12799;BME280;19250;42.646;26.980;2023-05-21T01:04:48;98603.56;;;19.51;53.70
12799;BME280;19250;42.646;26.980;2023-05-21T01:07:15;98604.16;;;19.35;53.30
12799;BME280;19250;42.646;26.980;2023-05-21T01:09:42;98599.97;;;19.15;54.03
12799;BME280;19250;42.646;26.980;2023-05-21T01:12:09;98601.22;;;18.94;54.60
12799;BME280;19250;42.646;26.980;2023-05-21T01:14:37;98604.19;;;18.61;56.46
12799;BME280;19250;42.646;26.980;2023-05-21T01:17:06;98600.88;;;18.28;57.42
12799;BME280;19250;42.646;26.980;2023-05-21T01:19:34;98591.09;;;18.33;58.05
12799;BME280;19250;42.646;26.980;2023-05-21T01:22:03;98595.06;;;17.86;60.53
12799;BME280;19250;42.646;26.980;2023-05-21T01:24:31;98590.66;;;17.41;63.02
12799;BME280;19250;42.646;26.980;2023-05-21T01:26:59;98595.22;;;17.40;64.72
12799;BME280;19250;42.646;26.980;2023-05-21T01:29:26;98590.91;;;17.90;62.87
12799;BME280;19250;42.646;26.980;2023-05-21T01:31:55;98599.63;;;17.92;62.52
12799;BME280;19250;42.646;26.980;2023-05-21T01:34:27;98589.84;;;18.29;60.65
12799;BME280;19250;42.646;26.980;2023-05-21T01:37:07;98595.38;;;18.10;61.06
12799;BME280;19250;42.646;26.980;2023-05-21T01:39:39;98601.75;;;17.77;62.91
12799;BME280;19250;42.646;26.980;2023-05-21T01:42:09;98595.47;;;17.90;62.29
12799;BME280;19250;42.646;26.980;2023-05-21T01:44:36;98593.44;;;17.85;62.99
12799;BME280;19250;42.646;26.980;2023-05-21T01:47:03;98590.31;;;18.20;61.66
12799;BME280;19250;42.646;26.980;2023-05-21T01:49:30;98591.44;;;18.12;62.33
12799;BME280;19250;42.646;26.980;2023-05-21T01:51:57;98590.88;;;17.97;62.76
12799;BME280;19250;42.646;26.980;2023-05-21T01:54:24;98585.91;;;18.01;62.76
12799;BME280;19250;42.646;26.980;2023-05-21T01:56:52;98574.88;;;18.33;62.11
12799;BME280;19250;42.646;26.980;2023-05-21T01:59:20;98576.75;;;18.33;61.65
12799;BME280;19250;42.646;26.980;2023-05-21T02:01:46;98576.59;;;18.28;61.75
12799;BME280;19250;42.646;26.980;2023-05-21T02:04:13;98571.28;;;18.15;62.11
12799;BME280;19250;42.646;26.980;2023-05-21T02:06:40;98572.34;;;18.38;61.46
12799;BME280;19250;42.646;26.980;2023-05-21T02:09:08;98570.28;;;18.40;60.47
12799;BME280;19250;42.646;26.980;2023-05-21T02:11:35;98568.25;;;18.29;61.09
12799;BME280;19250;42.646;26.980;2023-05-21T02:14:03;98569.00;;;18.50;60.48
12799;BME280;19250;42.646;26.980;2023-05-21T02:16:32;98568.53;;;18.53;60.05
12799;BME280;19250;42.646;26.980;2023-05-21T02:18:59;98570.81;;;18.56;60.11
12799;BME280;19250;42.646;26.980;2023-05-21T02:21:25;98567.22;;;18.62;59.39
12799;BME280;19250;42.646;26.980;2023-05-21T02:23:52;98568.16;;;18.74;59.39
12799;BME280;19250;42.646;26.980;2023-05-21T02:26:20;98572.94;;;18.72;59.08
12799;BME280;19250;42.646;26.980;2023-05-21T02:28:47;98565.69;;;18.41;60.36
12799;BME280;19250;42.646;26.980;2023-05-21T02:31:15;98569.66;;;18.38;60.77
12799;BME280;19250;42.646;26.980;2023-05-21T02:33:42;98564.69;;;18.35;61.78
12799;BME280;19250;42.646;26.980;2023-05-21T02:36:09;98563.72;;;17.92;64.12
12799;BME280;19250;42.646;26.980;2023-05-21T02:38:39;98563.47;;;18.00;64.29
12799;BME280;19250;42.646;26.980;2023-05-21T02:41:08;98561.72;;;17.81;65.58
12799;BME280;19250;42.646;26.980;2023-05-21T02:43:35;98567.00;;;17.56;67.61
12799;BME280;19250;42.646;26.980;2023-05-21T02:46:01;98567.09;;;17.23;70.64
12799;BME280;19250;42.646;26.980;2023-05-21T02:48:30;98568.00;;;17.62;68.64
12799;BME280;19250;42.646;26.980;2023-05-21T02:50:57;98567.28;;;17.86;67.17
12799;BME280;19250;42.646;26.980;2023-05-21T02:53:24;98564.81;;;17.84;67.26
12799;BME280;19250;42.646;26.980;2023-05-21T02:55:51;98570.94;;;17.98;66.45
12799;BME280;19250;42.646;26.980;2023-05-21T02:58:18;98574.50;;;17.92;67.17
12799;BME280;19250;42.646;26.980;2023-05-21T03:00:47;98570.06;;;17.73;68.96
12799;BME280;19250;42.646;26.980;2023-05-21T03:03:14;98574.38;;;17.80;68.35
12799;BME280;19250;42.646;26.980;2023-05-21T03:05:42;98575.19;;;17.81;68.25
12799;BME280;19250;42.646;26.980;2023-05-21T03:08:10;98575.00;;;18.14;65.88
12799;BME280;19250;42.646;26.980;2023-05-21T03:10:36;98577.50;;;18.15;65.52
12799;BME280;19250;42.646;26.980;2023-05-21T03:13:03;98582.38;;;18.00;64.65
12799;BME280;19250;42.646;26.980;2023-05-21T03:15:31;98581.72;;;17.98;64.41
12799;BME280;19250;42.646;26.980;2023-05-21T03:17:59;98587.28;;;18.10;63.73
12799;BME280;19250;42.646;26.980;2023-05-21T03:20:26;98586.75;;;18.26;62.58
12799;BME280;19250;42.646;26.980;2023-05-21T03:22:54;98585.13;;;18.25;62.45
12799;BME280;19250;42.646;26.980;2023-05-21T03:25:21;98586.41;;;18.47;61.05
12799;BME280;19250;42.646;26.980;2023-05-21T03:27:49;98597.28;;;18.40;61.91
12799;BME280;19250;42.646;26.980;2023-05-21T03:30:17;98591.03;;;18.40;62.07
12799;BME280;19250;42.646;26.980;2023-05-21T03:32:44;98599.34;;;18.38;61.46
12799;BME280;19250;42.646;26.980;2023-05-21T03:35:10;98588.25;;;18.22;62.75
12799;BME280;19250;42.646;26.980;2023-05-21T03:37:37;98594.50;;;18.47;62.27
12799;BME280;19250;42.646;26.980;2023-05-21T03:40:06;98596.69;;;18.63;61.34
12799;BME280;19250;42.646;26.980;2023-05-21T03:42:33;98598.69;;;18.50;61.75
12799;BME280;19250;42.646;26.980;2023-05-21T03:45:00;98593.91;;;18.45;61.98
12799;BME280;19250;42.646;26.980;2023-05-21T03:47:27;98591.16;;;18.20;63.36
12799;BME280;19250;42.646;26.980;2023-05-21T03:49:54;98599.91;;;18.16;63.95
12799;BME280;19250;42.646;26.980;2023-05-21T03:52:21;98593.66;;;18.22;63.26
12799;BME280;19250;42.646;26.980;2023-05-21T03:54:47;98594.22;;;18.30;62.70
12799;BME280;19250;42.646;26.980;2023-05-21T03:57:16;98600.94;;;18.15;63.28
12799;BME280;19250;42.646;26.980;2023-05-21T03:59:43;98604.44;;;18.22;62.56
12799;BME280;19250;42.646;26.980;2023-05-21T04:02:09;98592.16;;;17.94;63.41
12799;BME280;19250;42.646;26.980;2023-05-21T04:04:36;98592.09;;;18.01;63.70
12799;BME280;19250;42.646;26.980;2023-05-21T04:07:03;98594.13;;;18.12;62.88
12799;BME280;19250;42.646;26.980;2023-05-21T04:09:30;98596.44;;;18.02;63.57
12799;BME280;19250;42.646;26.980;2023-05-21T04:11:57;98590.03;;;18.03;63.82
12799;BME280;19250;42.646;26.980;2023-05-21T04:14:25;98586.50;;;18.34;62.37
12799;BME280;19250;42.646;26.980;2023-05-21T04:16:52;98592.38;;;18.24;62.44
12799;BME280;19250;42.646;26.980;2023-05-21T04:19:19;98598.06;;;18.41;62.24
12799;BME280;19250;42.646;26.980;2023-05-21T04:21:46;98596.03;;;18.36;62.29
12799;BME280;19250;42.646;26.980;2023-05-21T04:24:13;98592.22;;;18.51;61.95
12799;BME280;19250;42.646;26.980;2023-05-21T04:26:40;98590.75;;;18.55;61.75
12799;BME280;19250;42.646;26.980;2023-05-21T04:29:07;98582.22;;;18.82;60.25
12799;BME280;19250;42.646;26.980;2023-05-21T04:31:35;98585.94;;;18.57;61.16
12799;BME280;19250;42.646;26.980;2023-05-21T04:34:02;98589.66;;;18.62;60.80
12799;BME280;19250;42.646;26.980;2023-05-21T04:36:29;98586.13;;;18.86;60.31
12799;BME280;19250;42.646;26.980;2023-05-21T04:38:58;98602.06;;;18.94;59.47
12799;BME280;19250;42.646;26.980;2023-05-21T04:41:24;98590.47;;;18.87;59.46
12799;BME280;19250;42.646;26.980;2023-05-21T04:43:52;98593.50;;;18.97;58.44
12799;BME280;19250;42.646;26.980;2023-05-21T04:46:19;98591.88;;;19.33;57.57
12799;BME280;19250;42.646;26.980;2023-05-21T04:48:52;98598.78;;;19.53;56.67
12799;BME280;19250;42.646;26.980;2023-05-21T04:51:19;98601.75;;;19.64;55.67
12799;BME280;19250;42.646;26.980;2023-05-21T04:53:47;98597.94;;;19.53;54.59
12799;BME280;19250;42.646;26.980;2023-05-21T04:56:14;98603.56;;;19.70;53.96
12799;BME280;19250;42.646;26.980;2023-05-21T04:58:42;98604.53;;;19.93;53.30
12799;BME280;19250;42.646;26.980;2023-05-21T05:01:09;98607.38;;;20.28;50.99
12799;BME280;19250;42.646;26.980;2023-05-21T05:03:37;98611.81;;;19.93;51.38
12799;BME280;19250;42.646;26.980;2023-05-21T05:06:05;98611.78;;;20.11;50.67
12799;BME280;19250;42.646;26.980;2023-05-21T05:08:33;98606.38;;;20.11;50.53
12799;BME280;19250;42.646;26.980;2023-05-21T05:11:00;98619.88;;;20.29;50.38
12799;BME280;19250;42.646;26.980;2023-05-21T05:13:27;98608.47;;;20.27;49.98
12799;BME280;19250;42.646;26.980;2023-05-21T05:15:54;98609.63;;;20.31;49.70
12799;BME280;19250;42.646;26.980;2023-05-21T05:18:21;98609.72;;;20.54;49.79
12799;BME280;19250;42.646;26.980;2023-05-21T05:20:48;98606.88;;;20.61;49.28
12799;BME280;19250;42.646;26.980;2023-05-21T05:23:16;98604.31;;;20.66;49.16
12799;BME280;19250;42.646;26.980;2023-05-21T05:25:43;98608.47;;;20.92;48.89
12799;BME280;19250;42.646;26.980;2023-05-21T05:28:10;98609.34;;;21.15;47.45
12799;BME280;19250;42.646;26.980;2023-05-21T05:30:37;98610.16;;;21.39;47.45
12799;BME280;19250;42.646;26.980;2023-05-21T05:33:04;98613.66;;;20.93;48.81
12799;BME280;19250;42.646;26.980;2023-05-21T05:35:31;98612.28;;;21.14;47.80
12799;BME280;19250;42.646;26.980;2023-05-21T05:37:58;98607.81;;;21.20;47.98
12799;BME280;19250;42.646;26.980;2023-05-21T05:40:26;98604.16;;;21.14;47.61
12799;BME280;19250;42.646;26.980;2023-05-21T05:42:53;98602.72;;;21.23;46.95
12799;BME280;19250;42.646;26.980;2023-05-21T05:45:20;98601.53;;;21.54;46.85
12799;BME280;19250;42.646;26.980;2023-05-21T05:47:46;98600.53;;;21.83;46.03
12799;BME280;19250;42.646;26.980;2023-05-21T05:50:13;98599.84;;;21.76;45.84
12799;BME280;19250;42.646;26.980;2023-05-21T05:52:40;98599.56;;;22.01;44.72
12799;BME280;19250;42.646;26.980;2023-05-21T05:55:07;98605.81;;;21.90;43.88
12799;BME280;19250;42.646;26.980;2023-05-21T05:57:35;98596.97;;;21.94;44.14
12799;BME280;19250;42.646;26.980;2023-05-21T06:00:03;98611.78;;;21.63;44.69
12799;BME280;19250;42.646;26.980;2023-05-21T06:02:30;98602.50;;;21.88;44.22
12799;BME280;19250;42.646;26.980;2023-05-21T06:04:57;98608.81;;;21.88;44.18
12799;BME280;19250;42.646;26.980;2023-05-21T06:07:23;98612.72;;;22.09;44.80
12799;BME280;19250;42.646;26.980;2023-05-21T06:09:50;98617.88;;;22.22;44.16
12799;BME280;19250;42.646;26.980;2023-05-21T06:12:17;98605.53;;;22.59;43.36
12799;BME280;19250;42.646;26.980;2023-05-21T06:14:45;98614.56;;;22.48;43.60
12799;BME280;19250;42.646;26.980;2023-05-21T06:17:13;98611.84;;;22.93;42.96
12799;BME280;19250;42.646;26.980;2023-05-21T06:19:40;98619.50;;;22.96;42.04
12799;BME280;19250;42.646;26.980;2023-05-21T06:22:07;98614.38;;;23.00;41.70
12799;BME280;19250;42.646;26.980;2023-05-21T06:24:34;98605.84;;;23.46;41.77
12799;BME280;19250;42.646;26.980;2023-05-21T06:27:01;98606.84;;;23.57;40.99
12799;BME280;19250;42.646;26.980;2023-05-21T06:29:28;98598.59;;;23.73;40.66
12799;BME280;19250;42.646;26.980;2023-05-21T06:31:56;98594.66;;;23.43;40.41
12799;BME280;19250;42.646;26.980;2023-05-21T06:34:23;98602.38;;;23.34;39.58
12799;BME280;19250;42.646;26.980;2023-05-21T06:36:50;98598.59;;;23.35;39.43
12799;BME280;19250;42.646;26.980;2023-05-21T06:39:17;98597.00;;;23.17;39.87
12799;BME280;19250;42.646;26.980;2023-05-21T06:41:44;98598.34;;;23.37;39.63
12799;BME280;19250;42.646;26.980;2023-05-21T06:44:11;98592.13;;;23.03;39.58
12799;BME280;19250;42.646;26.980;2023-05-21T06:46:38;98599.66;;;22.96;39.66
12799;BME280;19250;42.646;26.980;2023-05-21T06:49:06;98604.00;;;22.97;40.28
12799;BME280;19250;42.646;26.980;2023-05-21T06:51:33;98588.44;;;22.92;40.12
12799;BME280;19250;42.646;26.980;2023-05-21T06:54:00;98597.94;;;23.28;40.29
12799;BME280;19250;42.646;26.980;2023-05-21T06:56:26;98590.84;;;23.44;39.93
12799;BME280;19250;42.646;26.980;2023-05-21T06:58:53;98603.00;;;23.19;39.01
12799;BME280;19250;42.646;26.980;2023-05-21T07:01:20;98597.16;;;23.11;40.30
12799;BME280;19250;42.646;26.980;2023-05-21T07:03:47;98595.03;;;23.73;39.72
12799;BME280;19250;42.646;26.980;2023-05-21T07:06:15;98593.75;;;23.75;39.07
12799;BME280;19250;42.646;26.980;2023-05-21T07:08:42;98598.69;;;23.78;38.96
12799;BME280;19250;42.646;26.980;2023-05-21T07:11:09;98594.53;;;23.76;39.07
12799;BME280;19250;42.646;26.980;2023-05-21T07:13:36;98587.59;;;23.63;39.40
12799;BME280;19250;42.646;26.980;2023-05-21T07:16:03;98593.13;;;24.12;38.92
12799;BME280;19250;42.646;26.980;2023-05-21T07:18:30;98593.84;;;24.29;38.67
12799;BME280;19250;42.646;26.980;2023-05-21T07:20:57;98592.81;;;23.92;38.63
12799;BME280;19250;42.646;26.980;2023-05-21T07:23:25;98590.94;;;23.92;39.14
12799;BME280;19250;42.646;26.980;2023-05-21T07:25:52;98598.72;;;24.27;38.32
12799;BME280;19250;42.646;26.980;2023-05-21T07:28:19;98608.94;;;24.15;37.83
12799;BME280;19250;42.646;26.980;2023-05-21T07:30:46;98602.59;;;23.88;38.46
12799;BME280;19250;42.646;26.980;2023-05-21T07:33:13;98601.91;;;23.97;38.49
12799;BME280;19250;42.646;26.980;2023-05-21T07:35:40;98582.06;;;23.80;37.88
12799;BME280;19250;42.646;26.980;2023-05-21T07:38:07;98590.13;;;23.48;38.42
12799;BME280;19250;42.646;26.980;2023-05-21T07:40:35;98587.16;;;23.71;38.84
12799;BME280;19250;42.646;26.980;2023-05-21T07:43:02;98587.78;;;23.78;37.88
12799;BME280;19250;42.646;26.980;2023-05-21T07:45:29;98586.25;;;23.44;36.88
12799;BME280;19250;42.646;26.980;2023-05-21T07:47:56;98593.66;;;23.32;37.77
12799;BME280;19250;42.646;26.980;2023-05-21T07:50:23;98586.81;;;23.68;37.27
12799;BME280;19250;42.646;26.980;2023-05-21T07:52:50;98586.06;;;23.94;37.31
12799;BME280;19250;42.646;26.980;2023-05-21T07:55:17;98595.41;;;24.25;36.46
12799;BME280;19250;42.646;26.980;2023-05-21T07:57:46;98598.97;;;24.25;36.70
12799;BME280;19250;42.646;26.980;2023-05-21T08:00:14;98596.63;;;24.34;36.03
12799;BME280;19250;42.646;26.980;2023-05-21T08:02:41;98594.28;;;23.99;37.11
12799;BME280;19250;42.646;26.980;2023-05-21T08:05:08;98597.25;;;23.98;36.75
12799;BME280;19250;42.646;26.980;2023-05-21T08:07:35;98606.91;;;23.83;36.91
12799;BME280;19250;42.646;26.980;2023-05-21T08:10:03;98604.44;;;23.60;37.66
12799;BME280;19250;42.646;26.980;2023-05-21T08:12:30;98604.13;;;23.57;37.65
12799;BME280;19250;42.646;26.980;2023-05-21T08:14:58;98602.84;;;24.08;37.37
12799;BME280;19250;42.646;26.980;2023-05-21T08:17:25;98621.06;;;23.85;37.07
12799;BME280;19250;42.646;26.980;2023-05-21T08:19:52;98615.38;;;23.65;37.93
12799;BME280;19250;42.646;26.980;2023-05-21T08:22:19;98618.31;;;23.80;37.78
12799;BME280;19250;42.646;26.980;2023-05-21T08:24:46;98607.94;;;24.21;37.42
12799;BME280;19250;42.646;26.980;2023-05-21T08:27:13;98614.56;;;23.87;37.92
12799;BME280;19250;42.646;26.980;2023-05-21T08:29:40;98615.91;;;24.54;37.04
12799;BME280;19250;42.646;26.980;2023-05-21T08:32:09;98623.56;;;24.30;36.99
12799;BME280;19250;42.646;26.980;2023-05-21T08:34:36;98626.53;;;24.29;37.11
12799;BME280;19250;42.646;26.980;2023-05-21T08:37:03;98625.00;;;24.38;36.97
12799;BME280;19250;42.646;26.980;2023-05-21T08:39:30;98635.09;;;24.64;37.44
12799;BME280;19250;42.646;26.980;2023-05-21T08:41:59;98638.59;;;24.11;37.81
12799;BME280;19250;42.646;26.980;2023-05-21T08:44:28;98633.44;;;23.93;37.94
12799;BME280;19250;42.646;26.980;2023-05-21T08:46:56;98637.44;;;23.47;38.80
12799;BME280;19250;42.646;26.980;2023-05-21T08:49:26;98637.53;;;23.74;38.38
12799;BME280;19250;42.646;26.980;2023-05-21T08:51:56;98628.78;;;23.50;39.23
12799;BME280;19250;42.646;26.980;2023-05-21T08:54:24;98631.78;;;23.70;38.97
12799;BME280;19250;42.646;26.980;2023-05-21T08:56:52;98627.94;;;23.66;38.83
12799;BME280;19250;42.646;26.980;2023-05-21T08:59:20;98637.56;;;23.96;38.46
12799;BME280;19250;42.646;26.980;2023-05-21T09:01:48;98628.28;;;23.53;39.03
12799;BME280;19250;42.646;26.980;2023-05-21T09:04:16;98632.75;;;24.03;38.81
12799;BME280;19250;42.646;26.980;2023-05-21T09:06:44;98634.28;;;24.37;38.86
12799;BME280;19250;42.646;26.980;2023-05-21T09:09:13;98643.19;;;24.32;39.12
12799;BME280;19250;42.646;26.980;2023-05-21T09:11:43;98644.91;;;24.38;38.75
12799;BME280;19250;42.646;26.980;2023-05-21T09:14:11;98642.13;;;24.33;39.24
12799;BME280;19250;42.646;26.980;2023-05-21T09:16:39;98640.78;;;24.36;38.93
12799;BME280;19250;42.646;26.980;2023-05-21T09:19:06;98646.81;;;24.38;38.50
12799;BME280;19250;42.646;26.980;2023-05-21T09:21:32;98641.34;;;24.38;39.27
12799;BME280;19250;42.646;26.980;2023-05-21T09:24:01;98651.31;;;25.08;37.83
12799;BME280;19250;42.646;26.980;2023-05-21T09:26:30;98645.19;;;25.27;37.36
12799;BME280;19250;42.646;26.980;2023-05-21T09:28:58;98644.38;;;25.27;37.53
12799;BME280;19250;42.646;26.980;2023-05-21T09:31:26;98641.75;;;25.42;36.69
12799;BME280;19250;42.646;26.980;2023-05-21T09:33:54;98644.28;;;25.54;36.63
12799;BME280;19250;42.646;26.980;2023-05-21T09:36:21;98648.03;;;25.06;37.65
12799;BME280;19250;42.646;26.980;2023-05-21T09:38:49;98637.22;;;25.21;37.04
12799;BME280;19250;42.646;26.980;2023-05-21T09:41:17;98643.91;;;25.40;37.14
12799;BME280;19250;42.646;26.980;2023-05-21T09:43:45;98644.97;;;25.71;36.17
12799;BME280;19250;42.646;26.980;2023-05-21T09:46:12;98637.41;;;25.46;36.96
12799;BME280;19250;42.646;26.980;2023-05-21T09:48:40;98630.19;;;25.72;36.23
12799;BME280;19250;42.646;26.980;2023-05-21T09:51:08;98640.69;;;25.48;37.05
12799;BME280;19250;42.646;26.980;2023-05-21T09:53:35;98633.28;;;25.85;35.76
12799;BME280;19250;42.646;26.980;2023-05-21T09:56:02;98636.78;;;25.76;36.21
12799;BME280;19250;42.646;26.980;2023-05-21T09:58:31;98631.00;;;25.62;37.09
12799;BME280;19250;42.646;26.980;2023-05-21T10:00:59;98629.94;;;25.73;36.61
12799;BME280;19250;42.646;26.980;2023-05-21T10:03:26;98625.09;;;25.90;35.93
12799;BME280;19250;42.646;26.980;2023-05-21T10:05:53;98633.28;;;25.80;36.50
12799;BME280;19250;42.646;26.980;2023-05-21T10:08:20;98586.59;;;25.87;36.07
12799;BME280;19250;42.646;26.980;2023-05-21T10:10:48;98624.91;;;26.12;36.13
12799;BME280;19250;42.646;26.980;2023-05-21T10:13:17;98620.88;;;26.25;36.17
12799;BME280;19250;42.646;26.980;2023-05-21T10:15:49;98622.19;;;26.12;36.60
12799;BME280;19250;42.646;26.980;2023-05-21T10:18:19;98609.75;;;26.67;36.11
12799;BME280;19250;42.646;26.980;2023-05-21T10:20:47;98495.56;;;25.76;35.06
12799;BME280;19250;42.646;26.980;2023-05-21T10:23:15;98616.59;;;26.59;35.67
12799;BME280;19250;42.646;26.980;2023-05-21T10:25:42;98606.72;;;26.43;35.36
12799;BME280;19250;42.646;26.980;2023-05-21T10:28:09;98603.75;;;26.65;35.66
12799;BME280;19250;42.646;26.980;2023-05-21T10:30:37;98615.00;;;26.93;35.32
12799;BME280;19250;42.646;26.980;2023-05-21T10:33:06;98604.59;;;27.21;34.93
12799;BME280;19250;42.646;26.980;2023-05-21T10:35:33;98603.53;;;26.96;34.67
12799;BME280;19250;42.646;26.980;2023-05-21T10:38:02;98544.69;;;26.84;34.94
12799;BME280;19250;42.646;26.980;2023-05-21T10:40:30;98599.59;;;27.63;33.93
12799;BME280;19250;42.646;26.980;2023-05-21T10:43:01;98597.44;;;27.55;33.52
12799;BME280;19250;42.646;26.980;2023-05-21T10:45:35;98605.44;;;28.16;33.52
12799;BME280;19250;42.646;26.980;2023-05-21T10:48:13;98602.06;;;28.34;32.98
12799;BME280;19250;42.646;26.980;2023-05-21T10:51:03;98594.88;;;28.43;32.68
12799;BME280;19250;42.646;26.980;2023-05-21T10:53:46;98599.66;;;27.33;32.57
12799;BME280;19250;42.646;26.980;2023-05-21T10:56:22;98608.41;;;26.79;32.11
12799;BME280;19250;42.646;26.980;2023-05-21T10:59:09;98589.25;;;26.54;32.09
12799;BME280;19250;42.646;26.980;2023-05-21T11:01:40;98602.91;;;26.59;32.02
12799;BME280;19250;42.646;26.980;2023-05-21T11:04:10;98601.28;;;26.68;32.51
12799;BME280;19250;42.646;26.980;2023-05-21T11:06:45;98600.50;;;27.08;31.30
12799;BME280;19250;42.646;26.980;2023-05-21T11:09:14;98605.66;;;26.79;31.57
12799;BME280;19250;42.646;26.980;2023-05-21T11:11:43;98606.84;;;26.06;32.66
12799;BME280;19250;42.646;26.980;2023-05-21T11:14:30;98604.69;;;26.13;32.06
12799;BME280;19250;42.646;26.980;2023-05-21T11:17:00;98594.75;;;26.89;30.93
12799;BME280;19250;42.646;26.980;2023-05-21T11:19:36;98581.41;;;27.87;28.97
12799;BME280;19250;42.646;26.980;2023-05-21T11:22:19;98585.91;;;27.63;30.07
12799;BME280;19250;42.646;26.980;2023-05-21T11:24:47;98596.34;;;27.36;29.52
12799;BME280;19250;42.646;26.980;2023-05-21T11:27:30;98581.88;;;26.60;29.90
12799;BME280;19250;42.646;26.980;2023-05-21T11:29:58;98603.22;;;27.18;30.29
12799;BME280;19250;42.646;26.980;2023-05-21T11:32:29;98587.84;;;27.58;29.84
12799;BME280;19250;42.646;26.980;2023-05-21T11:34:59;98597.34;;;27.80;30.03
12799;BME280;19250;42.646;26.980;2023-05-21T11:37:29;98586.47;;;28.63;28.93
12799;BME280;19250;42.646;26.980;2023-05-21T11:40:16;98588.72;;;29.29;28.29
12799;BME280;19250;42.646;26.980;2023-05-21T11:42:48;98595.47;;;29.65;28.31
12799;BME280;19250;42.646;26.980;2023-05-21T11:45:16;98585.06;;;29.62;27.98
12799;BME280;19250;42.646;26.980;2023-05-21T11:47:43;98593.78;;;28.83;29.13
12799;BME280;19250;42.646;26.980;2023-05-21T11:50:12;98588.31;;;29.11;28.93
12799;BME280;19250;42.646;26.980;2023-05-21T11:52:40;98578.31;;;29.21;28.69
12799;BME280;19250;42.646;26.980;2023-05-21T11:55:07;98580.59;;;28.41;29.81
12799;BME280;19250;42.646;26.980;2023-05-21T11:57:35;98582.47;;;29.18;28.76
12799;BME280;19250;42.646;26.980;2023-05-21T12:00:03;98576.88;;;29.81;28.61
12799;BME280;19250;42.646;26.980;2023-05-21T12:02:37;98578.47;;;29.87;28.56
12799;BME280;19250;42.646;26.980;2023-05-21T12:05:05;98581.31;;;29.77;28.13
12799;BME280;19250;42.646;26.980;2023-05-21T12:07:34;98576.59;;;29.58;28.77
12799;BME280;19250;42.646;26.980;2023-05-21T12:10:03;98565.75;;;29.43;28.89
12799;BME280;19250;42.646;26.980;2023-05-21T12:12:30;98571.72;;;28.54;30.19
12799;BME280;19250;42.646;26.980;2023-05-21T12:14:57;98569.94;;;28.78;30.15
12799;BME280;19250;42.646;26.980;2023-05-21T12:17:24;98548.66;;;28.21;30.70
12799;BME280;19250;42.646;26.980;2023-05-21T12:19:52;98557.19;;;28.53;30.87
12799;BME280;19250;42.646;26.980;2023-05-21T12:22:19;98561.28;;;28.17;31.08
12799;BME280;19250;42.646;26.980;2023-05-21T12:24:49;98548.22;;;27.15;32.26
12799;BME280;19250;42.646;26.980;2023-05-21T12:27:17;98553.88;;;27.38;32.00
12799;BME280;19250;42.646;26.980;2023-05-21T12:29:45;98551.59;;;28.30;30.87
12799;BME280;19250;42.646;26.980;2023-05-21T12:32:12;98558.28;;;28.91;29.98
12799;BME280;19250;42.646;26.980;2023-05-21T12:34:40;98556.13;;;28.88;29.92
12799;BME280;19250;42.646;26.980;2023-05-21T12:37:09;98553.94;;;29.43;29.20
12799;BME280;19250;42.646;26.980;2023-05-21T12:39:46;98550.03;;;29.49;28.70
12799;BME280;19250;42.646;26.980;2023-05-21T12:42:14;98550.53;;;27.67;30.72
12799;BME280;19250;42.646;26.980;2023-05-21T12:44:43;98558.06;;;26.95;32.11
12799;BME280;19250;42.646;26.980;2023-05-21T12:47:10;98560.31;;;27.83;29.71
12799;BME280;19250;42.646;26.980;2023-05-21T12:49:38;98556.66;;;28.90;28.99
12799;BME280;19250;42.646;26.980;2023-05-21T12:52:07;98560.75;;;29.74;27.83
12799;BME280;19250;42.646;26.980;2023-05-21T12:54:34;98554.00;;;30.46;27.41